createdAt,value
2018-09-30T00:02:23.334Z,16.10
2018-09-30T00:04:55.880Z,17.60
2018-09-30T00:07:28.583Z,17.40
2018-09-30T00:10:01.148Z,18.30
2018-09-30T00:12:33.320Z,18.70
2018-09-30T00:15:05.825Z,18.60
2018-09-30T00:17:38.069Z,18.70
2018-09-30T00:20:10.551Z,18.70
2018-09-30T00:22:42.850Z,19.10
2018-09-30T00:25:19.924Z,19.70
2018-09-30T00:27:52.008Z,19.70
2018-09-30T00:30:24.922Z,20.10
2018-09-30T00:32:57.362Z,20.10
2018-09-30T00:35:29.827Z,21.20
2018-09-30T00:38:02.018Z,21.40
2018-09-30T00:40:34.807Z,21.20
2018-09-30T00:43:07.277Z,21.50
2018-09-30T00:45:39.882Z,21.70
2018-09-30T00:48:12.423Z,21.00
2018-09-30T00:50:45.097Z,20.90
2018-09-30T00:53:17.714Z,21.10
2018-09-30T00:55:50.748Z,22.00
2018-09-30T00:58:23.346Z,21.80
2018-09-30T01:00:55.904Z,22.00
2018-09-30T01:03:28.230Z,22.10
2018-09-30T01:06:00.827Z,22.10
2018-09-30T01:08:33.266Z,22.50
2018-09-30T01:11:06.069Z,23.10
2018-09-30T01:13:38.404Z,28.20
2018-09-30T01:16:11.163Z,32.90
2018-09-30T01:18:43.650Z,35.20
2018-09-30T01:21:15.962Z,34.70
2018-09-30T01:23:48.066Z,38.70
2018-09-30T01:26:20.608Z,41.20
2018-09-30T01:28:52.971Z,41.50
2018-09-30T01:31:25.542Z,43.20
2018-09-30T01:33:57.928Z,42.50
2018-09-30T01:36:30.469Z,47.10
2018-09-30T01:39:02.648Z,49.20
2018-09-30T01:41:35.217Z,49.00
2018-09-30T01:44:07.726Z,49.90
2018-09-30T01:46:40.631Z,54.50
2018-09-30T01:49:13.055Z,55.80
2018-09-30T01:51:45.334Z,56.90
2018-09-30T01:54:17.465Z,57.40
2018-09-30T01:56:50.257Z,57.10
2018-09-30T01:59:22.530Z,58.10
2018-09-30T02:01:54.821Z,58.80
2018-09-30T02:04:27.230Z,59.60
2018-09-30T02:07:00.589Z,58.70
2018-09-30T02:09:32.729Z,61.30
2018-09-30T02:12:05.993Z,61.70
2018-09-30T02:14:38.227Z,63.00
2018-09-30T02:17:10.692Z,63.80
2018-09-30T02:19:43.001Z,63.40
2018-09-30T02:22:15.211Z,63.50
2018-09-30T02:24:47.546Z,63.90
2018-09-30T02:27:19.981Z,64.00
2018-09-30T02:29:52.158Z,65.10
2018-09-30T02:32:25.202Z,64.60
2018-09-30T02:34:57.271Z,64.20
2018-09-30T02:37:29.566Z,64.00
2018-09-30T02:40:01.929Z,64.80
2018-09-30T02:42:34.203Z,66.10
2018-09-30T02:45:06.674Z,66.20
2018-09-30T02:47:39.241Z,65.80
2018-09-30T02:50:11.578Z,65.70
2018-09-30T02:52:43.846Z,65.60
2018-09-30T02:55:16.087Z,66.80
2018-09-30T02:57:48.122Z,67.90
2018-09-30T03:00:20.249Z,68.10
2018-09-30T03:02:52.699Z,67.60
2018-09-30T03:05:25.041Z,67.80
2018-09-30T03:08:01.796Z,66.70
2018-09-30T03:10:34.043Z,66.00
2018-09-30T03:13:06.320Z,66.00
2018-09-30T03:15:38.522Z,66.30
2018-09-30T03:18:10.939Z,66.30
2018-09-30T03:20:43.297Z,66.90
2018-09-30T03:23:15.808Z,66.60
2018-09-30T03:25:48.628Z,65.90
2018-09-30T03:28:20.827Z,66.20
2018-09-30T03:30:53.065Z,66.80
2018-09-30T03:33:24.819Z,66.90
2018-09-30T03:35:57.204Z,67.20
2018-09-30T03:38:29.387Z,67.30
2018-09-30T03:41:01.446Z,68.00
2018-09-30T03:43:34.157Z,68.70
2018-09-30T03:46:06.702Z,69.80
2018-09-30T03:48:38.608Z,70.50
2018-09-30T03:51:11.045Z,70.80
2018-09-30T03:53:44.169Z,71.20
2018-09-30T03:56:16.705Z,71.30
2018-09-30T03:58:49.030Z,71.60
2018-09-30T04:01:21.197Z,71.80
2018-09-30T04:03:53.695Z,71.70
2018-09-30T04:06:25.566Z,71.80
2018-09-30T04:08:57.582Z,71.60
2018-09-30T04:11:30.018Z,71.80
2018-09-30T04:14:02.996Z,72.20
2018-09-30T04:16:35.371Z,72.50
2018-09-30T04:19:07.804Z,73.20
2018-09-30T04:21:39.946Z,73.20
2018-09-30T04:24:12.752Z,73.20
2018-09-30T04:26:44.660Z,72.90
2018-09-30T04:29:17.213Z,72.30
2018-09-30T04:31:49.520Z,72.80
2018-09-30T04:34:21.660Z,72.40
2018-09-30T04:36:54.186Z,71.90
2018-09-30T04:39:26.371Z,71.60
2018-09-30T04:41:58.404Z,71.60
2018-09-30T04:44:30.907Z,71.90
2018-09-30T04:47:02.887Z,72.30
2018-09-30T04:49:35.552Z,72.70
2018-09-30T04:52:07.719Z,72.60
2018-09-30T04:54:40.337Z,72.80
2018-09-30T04:57:12.884Z,72.80
2018-09-30T04:59:45.381Z,72.70
2018-09-30T05:02:18.082Z,72.70
2018-09-30T05:04:50.296Z,72.40
2018-09-30T05:07:22.398Z,72.20
2018-09-30T05:09:54.605Z,72.70
2018-09-30T05:12:26.664Z,73.10
2018-09-30T05:14:59.014Z,72.80
2018-09-30T05:17:31.307Z,72.60
2018-09-30T05:20:03.611Z,73.00
2018-09-30T05:22:35.931Z,73.50
2018-09-30T05:25:08.123Z,75.00
2018-09-30T05:27:40.488Z,74.60
2018-09-30T05:30:13.159Z,74.50
2018-09-30T05:32:45.146Z,74.20
2018-09-30T05:35:17.568Z,74.50
2018-09-30T05:37:49.717Z,75.60
2018-09-30T05:40:21.894Z,75.80
2018-09-30T05:42:54.447Z,76.20
2018-09-30T05:45:27.037Z,76.20
2018-09-30T05:47:59.405Z,76.30
2018-09-30T05:50:31.805Z,76.70
2018-09-30T05:53:03.920Z,76.90
2018-09-30T05:55:36.304Z,76.70
2018-09-30T05:58:08.512Z,76.30
2018-09-30T06:00:41.296Z,76.50
2018-09-30T06:03:13.969Z,76.20
2018-09-30T06:05:46.373Z,76.50
2018-09-30T06:08:18.836Z,76.30
2018-09-30T06:10:52.000Z,76.30
2018-09-30T06:13:24.577Z,76.40
2018-09-30T06:15:57.858Z,76.20
2018-09-30T06:18:30.095Z,76.20
2018-09-30T06:21:02.535Z,76.40
2018-09-30T06:23:35.044Z,76.70
2018-09-30T06:26:07.899Z,76.60
2018-09-30T06:28:40.208Z,76.50
2018-09-30T06:31:12.515Z,76.40
2018-09-30T06:33:44.833Z,76.70
2018-09-30T06:36:17.065Z,76.20
2018-09-30T06:38:49.146Z,76.90
2018-09-30T06:41:21.635Z,76.70
2018-09-30T06:43:54.722Z,76.80
2018-09-30T06:46:26.797Z,77.40
2018-09-30T06:48:58.876Z,77.30
2018-09-30T06:51:31.246Z,77.40
2018-09-30T06:54:03.845Z,77.20
2018-09-30T06:56:36.228Z,77.90
2018-09-30T06:59:08.399Z,79.10
2018-09-30T07:01:40.852Z,80.70
2018-09-30T07:04:13.073Z,82.00
2018-09-30T07:06:45.329Z,81.70
2018-09-30T07:09:17.880Z,82.40
2018-09-30T07:11:50.381Z,82.40
2018-09-30T07:14:22.583Z,82.20
2018-09-30T07:16:54.961Z,82.30
2018-09-30T07:19:27.144Z,82.10
2018-09-30T07:21:59.544Z,82.20
2018-09-30T07:24:31.709Z,80.90
2018-09-30T07:27:04.578Z,80.50
2018-09-30T07:29:37.735Z,79.70
2018-09-30T07:32:10.589Z,79.70
2018-09-30T07:34:42.591Z,80.40
2018-09-30T07:37:14.787Z,80.70
2018-09-30T07:39:47.539Z,80.60
2018-09-30T07:42:19.679Z,81.20
2018-09-30T07:44:51.957Z,81.50
2018-09-30T07:47:24.694Z,81.90
2018-09-30T07:49:56.918Z,82.70
2018-09-30T07:52:29.468Z,83.80
2018-09-30T07:55:01.758Z,84.00
2018-09-30T07:57:33.791Z,84.90
2018-09-30T08:00:06.250Z,85.30
2018-09-30T08:02:38.729Z,85.30
2018-09-30T08:05:11.064Z,85.00
2018-09-30T08:07:43.451Z,85.00
2018-09-30T08:10:15.772Z,84.70
2018-09-30T08:12:48.050Z,84.20
2018-09-30T08:15:20.149Z,84.00
2018-09-30T08:17:52.254Z,83.90
2018-09-30T08:20:24.814Z,83.70
2018-09-30T08:22:57.158Z,83.40
2018-09-30T08:25:29.290Z,82.60
2018-09-30T08:28:01.533Z,82.90
2018-09-30T08:30:33.802Z,83.80
2018-09-30T08:33:06.479Z,84.20
2018-09-30T08:35:38.808Z,84.00
2018-09-30T08:38:15.384Z,84.00
2018-09-30T08:40:52.031Z,83.80
2018-09-30T08:43:24.626Z,83.60
2018-09-30T08:45:57.057Z,84.10
2018-09-30T08:48:29.342Z,84.30
2018-09-30T08:51:01.686Z,84.50
2018-09-30T08:53:34.058Z,84.70
2018-09-30T08:56:06.255Z,84.70
2018-09-30T08:58:38.365Z,84.90
2018-09-30T09:01:10.495Z,85.50
2018-09-30T09:03:43.104Z,86.00
2018-09-30T09:06:15.149Z,86.60
2018-09-30T09:08:47.381Z,86.80
2018-09-30T09:11:19.880Z,86.90
2018-09-30T09:13:52.058Z,86.80
2018-09-30T09:16:24.321Z,86.60
2018-09-30T09:18:56.928Z,86.50
2018-09-30T09:21:29.214Z,86.40
2018-09-30T09:24:01.210Z,86.90
2018-09-30T09:26:33.391Z,86.90
2018-09-30T09:29:06.023Z,87.00
2018-09-30T09:31:38.221Z,87.20
2018-09-30T09:34:11.264Z,87.30
2018-09-30T09:36:43.548Z,87.40
2018-09-30T09:39:15.823Z,87.40
2018-09-30T09:41:48.018Z,87.50
2018-09-30T09:44:20.433Z,87.50
2018-09-30T09:46:52.555Z,87.40
2018-09-30T09:49:24.771Z,87.40
2018-09-30T09:51:57.138Z,87.50
2018-09-30T09:54:29.531Z,87.60
2018-09-30T09:57:01.993Z,87.80
2018-09-30T09:59:34.407Z,87.50
2018-09-30T10:02:06.834Z,88.00
2018-09-30T10:04:38.962Z,88.00
2018-09-30T10:07:11.248Z,87.90
2018-09-30T10:09:43.421Z,87.80
2018-09-30T10:12:15.754Z,88.00
2018-09-30T10:14:48.119Z,87.50
2018-09-30T10:17:20.421Z,87.10
2018-09-30T10:19:52.806Z,86.80
2018-09-30T10:22:25.295Z,86.10
2018-09-30T10:24:57.632Z,85.00
2018-09-30T10:27:30.138Z,85.00
2018-09-30T10:30:02.446Z,85.10
2018-09-30T10:32:34.619Z,84.70
2018-09-30T10:35:07.193Z,84.20
2018-09-30T10:37:39.335Z,84.00
2018-09-30T10:40:11.659Z,83.90
2018-09-30T10:42:43.901Z,83.10
2018-09-30T10:45:16.347Z,82.60
2018-09-30T10:47:48.683Z,81.80
2018-09-30T10:50:21.237Z,81.50
2018-09-30T10:52:53.778Z,81.00
2018-09-30T10:55:26.316Z,80.80
2018-09-30T10:57:58.772Z,80.70
2018-09-30T11:00:31.371Z,80.70
2018-09-30T11:03:03.708Z,80.50
2018-09-30T11:05:35.977Z,81.20
2018-09-30T11:08:08.397Z,81.70
2018-09-30T11:10:40.827Z,83.00
2018-09-30T11:13:13.282Z,83.90
2018-09-30T11:15:45.768Z,85.20
2018-09-30T11:18:18.247Z,86.20
2018-09-30T11:20:50.476Z,87.20
2018-09-30T11:23:22.810Z,88.00
2018-09-30T11:25:54.929Z,88.30
2018-09-30T11:28:26.883Z,88.90
2018-09-30T11:30:59.089Z,89.50
2018-09-30T11:33:31.241Z,89.40
2018-09-30T11:36:03.630Z,90.00
2018-09-30T11:38:35.860Z,90.10
2018-09-30T11:41:08.165Z,90.20
2018-09-30T11:43:40.520Z,90.40
2018-09-30T11:46:12.938Z,90.50
2018-09-30T11:48:45.271Z,90.60
2018-09-30T11:51:17.822Z,90.80
2018-09-30T11:53:50.117Z,90.80
2018-09-30T11:56:22.245Z,90.90
2018-09-30T11:58:54.513Z,90.90
2018-09-30T12:01:26.545Z,90.80
2018-09-30T12:03:58.975Z,90.90
2018-09-30T12:06:31.099Z,90.90
2018-09-30T12:09:03.752Z,90.90
2018-09-30T12:11:35.814Z,91.00
2018-09-30T12:14:08.393Z,91.20
2018-09-30T12:16:40.788Z,91.20
2018-09-30T12:19:13.116Z,91.40
2018-09-30T12:21:45.479Z,91.50
2018-09-30T12:24:17.897Z,91.70
2018-09-30T12:26:50.510Z,91.80
2018-09-30T12:29:22.658Z,91.90
2018-09-30T12:31:54.719Z,92.20
2018-09-30T12:34:26.805Z,92.10
2018-09-30T12:36:59.050Z,92.10
2018-09-30T12:39:31.146Z,92.10
2018-09-30T12:42:03.372Z,92.10
2018-09-30T12:44:35.487Z,92.00
2018-09-30T12:47:07.667Z,91.90
2018-09-30T12:49:39.636Z,91.80
2018-09-30T12:52:11.779Z,92.00
2018-09-30T12:54:43.917Z,92.00
2018-09-30T12:57:16.063Z,91.80
2018-09-30T12:59:48.354Z,91.80
2018-09-30T13:02:20.282Z,91.90
2018-09-30T13:04:52.417Z,91.60
2018-09-30T13:07:25.691Z,91.60
2018-09-30T13:09:58.247Z,91.60
2018-09-30T13:12:30.749Z,91.60
2018-09-30T13:15:03.320Z,91.60
2018-09-30T13:17:35.311Z,91.40
2018-09-30T13:20:07.879Z,91.50
2018-09-30T13:22:40.246Z,91.30
2018-09-30T13:25:12.378Z,91.20
2018-09-30T13:27:44.794Z,91.10
2018-09-30T13:30:17.139Z,91.00
2018-09-30T13:32:49.487Z,91.00
2018-09-30T13:35:21.600Z,90.90
2018-09-30T13:37:53.992Z,90.70
2018-09-30T13:40:26.893Z,90.80
2018-09-30T13:42:59.356Z,90.60
2018-09-30T13:45:31.308Z,90.60
2018-09-30T13:48:03.906Z,90.40
2018-09-30T13:50:36.545Z,90.10
2018-09-30T13:53:09.465Z,89.80
2018-09-30T13:55:42.179Z,89.90
2018-09-30T13:58:14.735Z,89.90
2018-09-30T14:00:47.468Z,89.40
2018-09-30T14:03:19.816Z,89.50
2018-09-30T14:05:52.149Z,89.00
2018-09-30T14:08:24.647Z,89.20
2018-09-30T14:10:56.854Z,88.40
2018-09-30T14:13:29.050Z,88.50
2018-09-30T14:16:01.190Z,88.20
2018-09-30T14:18:33.653Z,87.60
2018-09-30T14:21:05.795Z,86.80
2018-09-30T14:23:38.420Z,86.80
2018-09-30T14:26:10.451Z,86.40
2018-09-30T14:28:42.956Z,86.10
2018-09-30T14:31:15.286Z,85.80
2018-09-30T14:33:47.787Z,85.80
2018-09-30T14:36:19.864Z,85.90
2018-09-30T14:38:52.014Z,85.90
2018-09-30T14:41:24.398Z,86.30
2018-09-30T14:43:57.408Z,86.70
2018-09-30T14:46:30.169Z,87.20
2018-09-30T14:49:02.603Z,87.80
2018-09-30T14:51:35.751Z,88.60
2018-09-30T14:54:08.125Z,89.30
2018-09-30T14:56:40.481Z,90.00
2018-09-30T14:59:12.826Z,90.20
2018-09-30T15:01:45.277Z,90.30
2018-09-30T15:04:17.988Z,90.40
2018-09-30T15:06:50.193Z,90.60
2018-09-30T15:09:22.645Z,90.60
2018-09-30T15:11:54.953Z,90.80
2018-09-30T15:14:27.260Z,90.80
2018-09-30T15:16:59.484Z,90.90
2018-09-30T15:19:31.971Z,90.90
2018-09-30T15:22:03.992Z,91.00
2018-09-30T15:24:36.168Z,91.00
2018-09-30T15:27:08.908Z,90.80
2018-09-30T15:29:41.100Z,90.70
2018-09-30T15:32:13.475Z,89.90
2018-09-30T15:34:46.052Z,89.30
2018-09-30T15:37:18.416Z,88.40
2018-09-30T15:39:50.805Z,88.00
2018-09-30T15:42:22.931Z,87.70
2018-09-30T15:44:55.526Z,87.30
2018-09-30T15:47:28.089Z,87.60
2018-09-30T15:52:37.135Z,85.90
2018-09-30T15:55:09.621Z,80.80
2018-09-30T15:57:41.937Z,79.60
2018-09-30T16:00:14.249Z,80.60
2018-09-30T16:02:46.454Z,80.80
2018-09-30T16:05:18.703Z,80.20
2018-09-30T16:07:50.858Z,81.40
2018-09-30T16:10:23.166Z,78.80
2018-09-30T16:12:55.411Z,75.60
2018-09-30T16:15:27.807Z,75.00
2018-09-30T16:17:59.923Z,78.30
2018-09-30T16:20:32.369Z,79.30
2018-09-30T16:23:04.393Z,80.40
2018-09-30T16:25:36.603Z,81.20
2018-09-30T16:28:09.356Z,81.60
2018-09-30T16:30:41.631Z,82.40
2018-09-30T16:33:14.112Z,82.50
2018-09-30T16:35:46.162Z,83.10
2018-09-30T16:38:18.230Z,82.60
2018-09-30T16:40:50.865Z,82.80
2018-09-30T16:43:23.135Z,83.50
2018-09-30T16:45:55.293Z,84.30
2018-09-30T16:48:27.834Z,85.70
2018-09-30T16:51:00.315Z,85.50
2018-09-30T16:53:32.857Z,85.40
2018-09-30T16:56:05.132Z,84.20
2018-09-30T16:58:37.411Z,84.30
2018-09-30T17:01:09.744Z,82.70
2018-09-30T17:03:41.771Z,81.20
2018-09-30T17:06:14.175Z,78.80
2018-09-30T17:08:46.346Z,73.30
2018-09-30T17:11:18.446Z,66.10
2018-09-30T17:13:50.961Z,62.40
2018-09-30T17:16:23.340Z,66.90
2018-09-30T17:18:55.594Z,69.10
2018-09-30T17:21:27.702Z,63.20
2018-09-30T17:24:00.893Z,62.90
2018-09-30T17:26:33.463Z,52.40
2018-09-30T17:29:05.991Z,51.50
2018-09-30T17:31:38.100Z,48.30
2018-09-30T17:34:10.389Z,39.60
2018-09-30T17:36:43.617Z,39.70
2018-09-30T17:39:15.937Z,38.10
2018-09-30T17:41:48.486Z,30.20
2018-09-30T17:44:21.111Z,31.70
2018-09-30T17:46:53.311Z,30.20
2018-09-30T17:49:25.600Z,28.20
2018-09-30T17:51:57.987Z,27.00
2018-09-30T17:54:30.670Z,24.10
2018-09-30T17:57:03.169Z,23.60
2018-09-30T17:59:35.724Z,24.80
2018-09-30T18:02:08.210Z,23.50
2018-09-30T18:04:40.493Z,19.50
2018-09-30T18:07:12.815Z,21.80
2018-09-30T18:09:45.182Z,20.50
2018-09-30T18:12:17.310Z,26.30
2018-09-30T18:14:49.602Z,28.00
2018-09-30T18:17:22.916Z,35.80
2018-09-30T18:19:55.026Z,36.80
2018-09-30T18:22:27.762Z,41.20
2018-09-30T18:25:00.011Z,43.10
2018-09-30T18:27:32.179Z,43.80
2018-09-30T18:30:04.805Z,38.30
2018-09-30T18:32:37.026Z,39.70
2018-09-30T18:35:09.475Z,37.30
2018-09-30T18:37:41.867Z,42.90
2018-09-30T18:40:14.183Z,49.70
2018-09-30T18:42:46.939Z,49.40
2018-09-30T18:45:19.286Z,47.40
2018-09-30T18:47:51.795Z,45.50
2018-09-30T18:50:24.163Z,42.00
2018-09-30T18:52:57.376Z,47.40
2018-09-30T18:55:29.880Z,39.60
2018-09-30T18:58:02.332Z,37.00
2018-09-30T19:00:34.923Z,40.30
2018-09-30T19:03:07.193Z,32.50
2018-09-30T19:05:39.387Z,32.20
2018-09-30T19:08:11.656Z,37.40
2018-09-30T19:10:43.793Z,35.10
2018-09-30T19:13:16.342Z,33.10
2018-09-30T19:15:48.740Z,34.30
2018-09-30T19:18:21.162Z,35.10
2018-09-30T19:20:53.370Z,39.00
2018-09-30T19:23:25.926Z,37.40
2018-09-30T19:25:57.946Z,36.30
2018-09-30T19:28:30.189Z,37.00
2018-09-30T19:31:02.801Z,36.50
2018-09-30T19:33:35.413Z,33.50
2018-09-30T19:36:07.529Z,35.50
2018-09-30T19:38:39.778Z,37.80
2018-09-30T19:41:11.807Z,36.80
2018-09-30T19:43:44.215Z,35.80
2018-09-30T19:46:17.001Z,31.20
2018-09-30T19:48:49.706Z,32.30
2018-09-30T19:51:22.286Z,32.40
2018-09-30T19:53:54.818Z,34.40
2018-09-30T19:56:27.255Z,36.20
2018-09-30T19:58:59.906Z,34.90
2018-09-30T20:01:32.502Z,36.00
2018-09-30T20:04:04.910Z,36.80
2018-09-30T20:06:37.186Z,34.60
2018-09-30T20:09:11.025Z,35.20
2018-09-30T20:11:43.533Z,31.30
2018-09-30T20:14:15.744Z,29.90
2018-09-30T20:16:48.637Z,31.50
2018-09-30T20:19:21.149Z,30.10
2018-09-30T20:21:53.343Z,31.70
2018-09-30T20:24:25.781Z,31.70
2018-09-30T20:26:57.871Z,27.10
2018-09-30T20:29:30.422Z,23.80
2018-09-30T20:32:02.630Z,23.20
2018-09-30T20:34:35.358Z,22.50
2018-09-30T20:37:07.923Z,19.80
2018-09-30T20:39:40.446Z,19.30
2018-09-30T20:42:13.777Z,18.40
2018-09-30T20:44:46.243Z,21.90
2018-09-30T20:47:19.099Z,16.80
2018-09-30T20:49:51.239Z,16.00
2018-09-30T20:52:23.881Z,13.00
2018-09-30T20:54:56.460Z,11.30
2018-09-30T20:57:29.249Z,8.90
2018-09-30T21:00:01.695Z,10.20
2018-09-30T21:02:34.079Z,10.00
2018-09-30T21:05:20.019Z,10.30
2018-09-30T21:07:52.392Z,11.00
2018-09-30T21:10:24.628Z,9.10
2018-09-30T21:12:57.207Z,11.10
2018-09-30T21:15:29.559Z,10.00
2018-09-30T21:18:01.762Z,10.60
2018-09-30T21:20:34.181Z,10.60
2018-09-30T21:23:06.954Z,10.20
2018-09-30T21:25:39.322Z,10.50
2018-09-30T21:28:12.226Z,10.10
2018-09-30T21:30:44.701Z,9.90
2018-09-30T21:33:17.148Z,8.50
2018-09-30T21:35:50.046Z,9.90
2018-09-30T21:38:22.609Z,9.40
2018-09-30T21:40:54.969Z,9.40
2018-09-30T21:43:27.469Z,10.00
2018-09-30T21:46:00.619Z,11.00
2018-09-30T21:48:32.876Z,10.70
2018-09-30T21:51:05.201Z,10.00
2018-09-30T21:53:37.508Z,9.90
2018-09-30T21:56:09.807Z,9.80
2018-09-30T21:58:42.423Z,10.00
2018-09-30T22:01:14.823Z,9.00
2018-09-30T22:03:47.024Z,8.40
2018-09-30T22:06:19.556Z,10.40
2018-09-30T22:08:52.001Z,10.40
2018-09-30T22:11:24.879Z,8.90
2018-09-30T22:13:57.239Z,9.20
2018-09-30T22:16:29.388Z,9.70
2018-09-30T22:19:02.103Z,9.30
2018-09-30T22:21:34.360Z,9.10
2018-09-30T22:24:06.933Z,8.30
2018-09-30T22:26:39.351Z,9.50
2018-09-30T22:29:12.059Z,11.10
2018-09-30T22:31:44.214Z,9.50
2018-09-30T22:34:16.446Z,10.40
2018-09-30T22:36:48.636Z,10.30
2018-09-30T22:39:21.087Z,10.10
2018-09-30T22:41:53.627Z,10.90
2018-09-30T22:44:25.981Z,10.80
2018-09-30T22:46:58.702Z,11.60
2018-09-30T22:49:30.955Z,11.70
2018-09-30T22:52:03.712Z,11.90
2018-09-30T22:54:36.596Z,11.50
2018-09-30T22:57:08.922Z,12.00
2018-09-30T22:59:40.918Z,12.60
2018-09-30T23:02:13.806Z,11.70
2018-09-30T23:04:46.240Z,12.20
2018-09-30T23:07:18.740Z,12.50
2018-09-30T23:09:51.161Z,12.40
2018-09-30T23:12:23.514Z,12.30
2018-09-30T23:14:55.786Z,13.30
2018-09-30T23:17:30.031Z,12.70
2018-09-30T23:20:02.839Z,12.70
2018-09-30T23:22:35.432Z,13.10
2018-09-30T23:25:07.989Z,12.40
2018-09-30T23:27:40.485Z,12.40
2018-09-30T23:30:12.779Z,12.90
2018-09-30T23:32:45.248Z,13.20
2018-09-30T23:35:17.778Z,13.20
2018-09-30T23:37:50.340Z,13.60
2018-09-30T23:40:22.614Z,13.40
2018-09-30T23:42:55.281Z,14.20
2018-09-30T23:45:28.318Z,14.20
2018-09-30T23:48:01.086Z,13.40
2018-09-30T23:50:33.341Z,14.60
2018-09-30T23:53:06.404Z,13.10
2018-09-30T23:55:38.822Z,13.00
2018-09-30T23:58:15.179Z,12.90
